IDPK1: Verdigris River, Independence

                                SHEF ID:       IDPK1     VERDIGRIS R AT INDEPENDENCE, KS
STATION TYPE:
Regulating: Stage = 30.00, Flow = 23488

PRECIP STAGE RIV-FLOW BAT-LOAD
in ft cfs volt
Ccp-Rev Ccp-Rev Ccp-Rev Ccp-Rev
(America/Chicago)
02/27 00:00 0.00 5.52 1270 12.51
02/27 01:00 0.00 5.39 1221 12.48
02/27 02:00 0.00 5.26 1172 12.44
02/27 03:00 0.00 5.15 1132 12.41
02/27 04:00 0.00 5.04 1093 12.39
02/27 05:00 0.00 4.95 1061 12.36
02/27 06:00 0.00 4.87 1033 12.34
02/27 07:00 0.00 4.79 1005 12.31
02/27 08:00 0.00 4.72 981 12.32
02/27 09:00 0.00 4.65 957 13.76
02/27 10:00 0.00 4.59 937 13.21
02/27 11:00 0.00 4.54 920 13.18
02/27 12:00 0.00 4.50 906 13.16
02/27 13:00 0.00 4.47 896 13.09
02/27 14:00 0.00 4.44 885 13.03
02/27 15:00 0.00 4.42 877 12.99
02/27 16:00 0.00 4.40 870 12.98
02/27 17:00 0.00 4.39 867 12.97
02/27 18:00 0.00 4.37 859 12.96
02/27 19:00 0.00 4.37 859 12.77
02/27 20:00 0.00 4.36 856 12.72
02/27 21:00 0.00 4.34 849 12.67
02/27 22:00 0.00 4.33 845 12.64
02/27 23:00 0.00 4.31 838 12.60
Data processed at Sat 28Feb2026 05:05 GMT

NOTICE: If you are parsing this page

Please convert to using our Data API. Starting early 2026 we will be migrating to: https://water.usace.army.mil with modern pages rendered in JavaScript. When this migration completes you will no longer be able to scrape this page! CWMSDataAPI (CDA)

Timeseries IDs (TSIDs)

TSIDs used from left to right in the data table
INDP.Precip-Inc.Total.1Hour.1Hour.Ccp-Rev
INDP.Stage.Inst.1Hour.0.Ccp-Rev
INDP.Flow.Inst.1Hour.0.Ccp-Rev
INDP.Volt-Battery Load.Inst.1Hour.0.Ccp-Rev

                            

All information presented herein is the property of the government of the United States of America and may be revised or deleted at any time without prior notice. Dissemination of this information without the expressed written consent of the Public Affairs Office, Tulsa District U.S. Army Corps of Engineers is strictly prohibited. These data are gathered electronically and, as presented, have NOT undergone any form of quality control. These data are NOT guaranteed to be valid or correct.